createdAt,value
2022-11-29T00:01:52.587Z,36.29
2022-11-29T00:06:59.631Z,36.29
2022-11-29T00:12:06.831Z,36.05
2022-11-29T00:17:14.086Z,36.32
2022-11-29T00:22:21.267Z,36.08
2022-11-29T00:27:28.475Z,36.16
2022-11-29T00:32:35.827Z,36.18
2022-11-29T00:37:42.841Z,35.94
2022-11-29T00:42:49.997Z,36.31
2022-11-29T00:47:57.207Z,36.10
2022-11-29T00:53:04.391Z,36.00
2022-11-29T00:58:11.596Z,36.00
2022-11-29T01:03:18.835Z,35.98
2022-11-29T01:08:26.009Z,36.01
2022-11-29T01:13:33.190Z,35.97
2022-11-29T01:18:40.449Z,36.19
2022-11-29T01:23:47.594Z,36.13
2022-11-29T01:28:54.825Z,35.95
2022-11-29T01:34:02.061Z,36.03
2022-11-29T01:39:09.273Z,36.27
2022-11-29T01:44:16.466Z,35.94
2022-11-29T01:49:23.732Z,35.94
2022-11-29T01:54:30.971Z,35.87
2022-11-29T01:59:38.167Z,35.79
2022-11-29T02:04:45.578Z,35.82
2022-11-29T02:09:52.560Z,35.92
2022-11-29T02:14:59.812Z,35.71
2022-11-29T02:20:07.015Z,35.89
2022-11-29T02:25:14.214Z,35.65
2022-11-29T02:30:21.400Z,35.61
2022-11-29T02:35:28.625Z,35.51
2022-11-29T02:40:35.810Z,35.50
2022-11-29T02:45:43.094Z,35.29
2022-11-29T02:50:50.195Z,35.48
2022-11-29T02:55:57.317Z,35.57
2022-11-29T03:01:04.614Z,35.64
2022-11-29T03:06:11.741Z,35.54
2022-11-29T03:11:18.935Z,35.50
2022-11-29T03:16:26.130Z,35.48
2022-11-29T03:21:33.372Z,35.55
2022-11-29T03:26:40.539Z,35.58
2022-11-29T03:31:47.744Z,35.61
2022-11-29T03:36:54.995Z,35.61
2022-11-29T03:42:02.158Z,35.68
2022-11-29T03:47:09.386Z,35.80
2022-11-29T03:52:16.678Z,35.86
2022-11-29T03:57:23.808Z,35.94
2022-11-29T04:02:31.091Z,36.02
2022-11-29T04:07:38.325Z,36.13
2022-11-29T04:12:45.407Z,36.26
2022-11-29T04:17:52.682Z,36.38
2022-11-29T04:22:59.935Z,36.54
2022-11-29T04:28:07.085Z,36.66
2022-11-29T04:33:14.336Z,36.92
2022-11-29T04:38:21.526Z,37.14
2022-11-29T04:43:28.713Z,37.36
2022-11-29T04:48:35.914Z,37.57
2022-11-29T04:53:43.129Z,37.73
2022-11-29T04:58:50.333Z,37.93
2022-11-29T05:03:57.562Z,38.09
2022-11-29T05:09:04.770Z,38.32
2022-11-29T05:14:11.938Z,38.52
2022-11-29T05:19:19.174Z,38.79
2022-11-29T05:24:26.399Z,38.98
2022-11-29T05:29:33.575Z,39.19
2022-11-29T05:34:40.784Z,39.35
2022-11-29T05:39:47.979Z,39.45
2022-11-29T05:44:55.213Z,39.62
2022-11-29T05:50:02.397Z,39.73
2022-11-29T05:55:09.623Z,39.38
2022-11-29T06:00:16.791Z,38.91
2022-11-29T06:05:24.014Z,38.65
2022-11-29T06:10:31.204Z,38.50
2022-11-29T06:15:38.391Z,38.39
2022-11-29T06:20:45.607Z,38.35
2022-11-29T06:25:53.092Z,38.34
2022-11-29T06:31:00.318Z,38.41
2022-11-29T06:36:07.418Z,38.47
2022-11-29T06:41:14.675Z,38.58
2022-11-29T06:46:21.882Z,38.71
2022-11-29T06:51:29.047Z,39.07
2022-11-29T06:56:36.260Z,39.32
2022-11-29T07:01:43.533Z,39.54
2022-11-29T07:06:50.651Z,39.64
2022-11-29T07:11:57.877Z,39.86
2022-11-29T07:17:05.079Z,39.91
2022-11-29T07:22:12.246Z,39.57
2022-11-29T07:27:19.491Z,39.36
2022-11-29T07:32:26.672Z,39.54
2022-11-29T07:37:33.813Z,39.09
2022-11-29T07:42:41.066Z,38.71
2022-11-29T07:47:48.298Z,38.45
2022-11-29T07:52:55.496Z,38.28
2022-11-29T07:58:02.723Z,38.06
2022-11-29T08:03:09.905Z,37.91
2022-11-29T08:08:17.099Z,37.88
2022-11-29T08:13:24.342Z,37.74
2022-11-29T08:18:31.505Z,37.60
2022-11-29T08:23:38.728Z,37.48
2022-11-29T08:28:45.956Z,37.71
2022-11-29T08:33:53.074Z,38.13
2022-11-29T08:39:06.097Z,38.22
2022-11-29T08:44:07.425Z,38.30
2022-11-29T08:49:14.559Z,37.93
2022-11-29T08:54:21.726Z,37.71
2022-11-29T08:59:28.924Z,37.78
2022-11-29T09:04:36.056Z,37.70
2022-11-29T09:09:43.213Z,37.94
2022-11-29T09:14:50.496Z,37.80
2022-11-29T09:19:57.698Z,38.41
2022-11-29T09:25:04.874Z,38.86
2022-11-29T09:30:12.081Z,37.98
2022-11-29T09:35:19.249Z,37.55
2022-11-29T09:40:26.482Z,37.42
2022-11-29T09:45:33.757Z,37.32
2022-11-29T09:50:40.792Z,37.19
2022-11-29T09:55:47.993Z,37.14
2022-11-29T10:00:55.334Z,37.13
2022-11-29T10:06:02.436Z,37.13
2022-11-29T10:11:09.674Z,37.06
2022-11-29T10:16:16.917Z,37.00
2022-11-29T10:21:24.082Z,36.90
2022-11-29T10:26:35.130Z,36.89
2022-11-29T10:31:38.623Z,36.85
2022-11-29T10:36:45.850Z,36.78
2022-11-29T10:41:53.099Z,36.74
2022-11-29T10:47:00.328Z,36.80
2022-11-29T10:52:07.531Z,36.70
2022-11-29T10:57:14.735Z,36.69
2022-11-29T11:02:22.011Z,40.25
2022-11-29T11:07:29.347Z,40.25
2022-11-29T11:12:36.375Z,40.26
2022-11-29T11:17:43.626Z,40.53
2022-11-29T11:22:50.861Z,40.51
2022-11-29T11:27:58.059Z,40.25
2022-11-29T11:33:05.316Z,40.44
2022-11-29T11:38:12.486Z,40.37
2022-11-29T11:43:19.714Z,40.45
2022-11-29T11:48:26.952Z,40.43
2022-11-29T11:53:34.151Z,40.28
2022-11-29T11:58:41.323Z,40.38
2022-11-29T12:03:48.548Z,40.41
2022-11-29T12:08:55.744Z,40.34
2022-11-29T12:14:02.957Z,40.28
2022-11-29T12:19:10.182Z,40.32
2022-11-29T12:24:17.362Z,40.31
2022-11-29T12:29:24.558Z,40.24
2022-11-29T12:34:31.776Z,40.25
2022-11-29T12:39:39.019Z,40.27
2022-11-29T12:44:46.705Z,40.22
2022-11-29T12:49:53.592Z,40.19
2022-11-29T12:55:00.827Z,39.15
2022-11-29T13:00:08.001Z,38.75
2022-11-29T13:05:15.261Z,38.54
2022-11-29T13:10:22.421Z,38.42
2022-11-29T13:15:29.644Z,38.25
2022-11-29T13:20:36.876Z,38.11
2022-11-29T13:25:44.113Z,38.06
2022-11-29T13:30:51.407Z,37.93
2022-11-29T13:35:58.559Z,37.84
2022-11-29T13:41:05.775Z,37.77
2022-11-29T13:46:12.952Z,37.74
2022-11-29T13:51:20.276Z,37.77
2022-11-29T13:56:27.461Z,37.68
2022-11-29T14:01:34.730Z,37.58
2022-11-29T14:06:41.962Z,37.51
2022-11-29T14:11:49.088Z,37.49
2022-11-29T14:16:56.285Z,37.60
2022-11-29T14:22:03.541Z,37.85
2022-11-29T14:27:10.648Z,37.78
2022-11-29T14:32:17.883Z,37.77
2022-11-29T14:37:25.142Z,37.70
2022-11-29T14:42:32.372Z,37.64
2022-11-29T14:47:39.524Z,37.66
2022-11-29T14:52:46.725Z,37.61
2022-11-29T14:57:53.919Z,37.64
2022-11-29T15:03:01.108Z,37.59
2022-11-29T15:08:08.342Z,37.54
2022-11-29T15:13:15.528Z,37.54
2022-11-29T15:18:22.770Z,37.51
2022-11-29T15:23:29.989Z,37.51
2022-11-29T15:28:37.135Z,37.52
2022-11-29T15:33:44.362Z,37.58
2022-11-29T15:38:51.607Z,37.68
2022-11-29T15:43:58.746Z,37.63
2022-11-29T15:49:05.968Z,37.59
2022-11-29T15:54:13.773Z,37.64
2022-11-29T15:59:20.358Z,37.96
2022-11-29T16:04:27.509Z,37.88
2022-11-29T16:09:34.743Z,37.93
2022-11-29T16:14:42.176Z,37.84
2022-11-29T16:19:49.786Z,37.88
2022-11-29T16:24:57.127Z,37.77
2022-11-29T16:30:04.615Z,37.80
2022-11-29T16:35:12.067Z,37.80
2022-11-29T16:40:19.302Z,37.88
2022-11-29T16:45:26.920Z,37.74
2022-11-29T16:50:34.214Z,37.38
2022-11-29T16:55:42.705Z,37.30
2022-11-29T17:00:50.136Z,37.25
2022-11-29T17:05:57.194Z,37.13
2022-11-29T17:11:04.732Z,37.04
2022-11-29T17:16:12.085Z,37.05
2022-11-29T17:21:19.328Z,37.03
2022-11-29T17:26:26.860Z,37.00
2022-11-29T17:31:34.494Z,36.93
2022-11-29T17:36:41.883Z,36.85
2022-11-29T17:41:49.148Z,36.81
2022-11-29T17:46:56.673Z,36.80
2022-11-29T17:52:04.086Z,36.71
2022-11-29T17:57:11.343Z,36.69
2022-11-29T18:02:18.892Z,36.76
2022-11-29T18:07:26.483Z,36.71
2022-11-29T18:12:33.955Z,36.68
2022-11-29T18:17:41.304Z,36.66
2022-11-29T18:22:49.880Z,36.65
2022-11-29T18:27:57.623Z,36.63
2022-11-29T18:33:05.315Z,36.64
2022-11-29T18:38:16.018Z,36.60
2022-11-29T18:43:20.672Z,36.55
2022-11-29T18:48:28.249Z,36.54
2022-11-29T18:53:35.864Z,36.50
2022-11-29T18:58:43.509Z,36.47
2022-11-29T19:03:50.993Z,36.44
2022-11-29T19:08:58.608Z,38.22
2022-11-29T19:14:05.886Z,38.43
2022-11-29T19:19:13.343Z,38.95
2022-11-29T19:24:20.750Z,38.24
2022-11-29T19:29:28.369Z,37.93
2022-11-29T19:34:36.065Z,37.72
2022-11-29T19:39:43.956Z,37.60
2022-11-29T19:50:02.337Z,37.32
2022-11-29T19:55:06.122Z,37.47
2022-11-29T20:00:13.855Z,37.35
2022-11-29T20:05:22.471Z,37.21
2022-11-29T20:10:30.188Z,36.99
2022-11-29T20:15:38.899Z,37.05
2022-11-29T20:20:46.494Z,37.05
2022-11-29T20:25:54.156Z,36.84
2022-11-29T20:31:01.959Z,36.86
2022-11-29T20:36:09.492Z,37.21
2022-11-29T20:41:17.100Z,36.73
2022-11-29T20:46:24.789Z,36.66
2022-11-29T20:51:32.535Z,36.68
2022-11-29T20:56:39.871Z,36.78
2022-11-29T21:01:47.434Z,36.68
2022-11-29T21:06:54.772Z,36.40
2022-11-29T21:12:01.978Z,36.51
2022-11-29T21:17:09.182Z,37.06
2022-11-29T21:22:16.391Z,36.82
2022-11-29T21:27:23.907Z,36.86
2022-11-29T21:32:31.530Z,36.58
2022-11-29T21:37:39.118Z,36.90
2022-11-29T21:42:46.443Z,36.95
2022-11-29T21:47:53.668Z,36.91
2022-11-29T21:53:00.896Z,36.93
2022-11-29T21:58:08.140Z,36.93
2022-11-29T22:03:15.388Z,36.84
2022-11-29T22:08:22.523Z,36.80
2022-11-29T22:13:29.699Z,36.76
2022-11-29T22:18:36.886Z,36.84
2022-11-29T22:23:44.003Z,36.69
2022-11-29T22:28:51.174Z,36.71
2022-11-29T22:33:58.403Z,36.32
2022-11-29T22:39:05.620Z,36.35
2022-11-29T22:44:12.776Z,36.55
2022-11-29T22:49:20.013Z,36.64
2022-11-29T22:54:27.203Z,36.64
2022-11-29T22:59:34.369Z,36.60
2022-11-29T23:04:41.701Z,36.41
2022-11-29T23:09:48.862Z,36.40
2022-11-29T23:14:56.966Z,36.55
2022-11-29T23:20:03.300Z,36.53
2022-11-29T23:25:10.440Z,36.65
2022-11-29T23:30:17.623Z,36.55
2022-11-29T23:35:24.895Z,36.51
2022-11-29T23:40:32.023Z,36.31
2022-11-29T23:45:39.343Z,36.05
2022-11-29T23:50:46.525Z,36.40
2022-11-29T23:55:53.682Z,36.37
